sensor_id;sensor_type;location;lat;lon;timestamp;P1;durP1;ratioP1;P2;durP2;ratioP2
44434;SDS011;30138;20.964;105.830;2022-09-09T00:03:24;19.35;;;13.07;;
44434;SDS011;30138;20.964;105.830;2022-09-09T00:08:36;17.75;;;12.52;;
44434;SDS011;30138;20.964;105.830;2022-09-09T00:13:52;20.45;;;13.82;;
44434;SDS011;30138;20.964;105.830;2022-09-09T00:19:05;18.15;;;13.13;;
44434;SDS011;30138;20.964;105.830;2022-09-09T00:24:24;17.83;;;12.98;;
44434;SDS011;30138;20.964;105.830;2022-09-09T00:29:39;16.15;;;12.10;;
44434;SDS011;30138;20.964;105.830;2022-09-09T00:34:52;17.75;;;12.73;;
44434;SDS011;30138;20.964;105.830;2022-09-09T00:40:05;19.02;;;12.93;;
44434;SDS011;30138;20.964;105.830;2022-09-09T00:45:35;17.27;;;13.13;;
44434;SDS011;30138;20.964;105.830;2022-09-09T00:51:14;20.10;;;13.57;;
44434;SDS011;30138;20.964;105.830;2022-09-09T00:56:29;17.67;;;13.52;;
44434;SDS011;30138;20.964;105.830;2022-09-09T01:01:44;19.02;;;13.35;;
44434;SDS011;30138;20.964;105.830;2022-09-09T01:06:53;16.77;;;13.27;;
44434;SDS011;30138;20.964;105.830;2022-09-09T01:12:11;20.00;;;13.50;;
44434;SDS011;30138;20.964;105.830;2022-09-09T01:17:26;18.45;;;12.75;;
44434;SDS011;30138;20.964;105.830;2022-09-09T01:22:50;19.30;;;13.38;;
44434;SDS011;30138;20.964;105.830;2022-09-09T01:28:22;18.08;;;13.55;;
44434;SDS011;30138;20.964;105.830;2022-09-09T01:33:39;17.30;;;13.27;;
44434;SDS011;30138;20.964;105.830;2022-09-09T01:38:47;19.02;;;13.77;;
44434;SDS011;30138;20.964;105.830;2022-09-09T01:43:56;17.25;;;12.90;;
44434;SDS011;30138;20.964;105.830;2022-09-09T01:49:05;19.67;;;13.65;;
44434;SDS011;30138;20.964;105.830;2022-09-09T01:54:14;18.35;;;12.95;;
44434;SDS011;30138;20.964;105.830;2022-09-09T01:59:32;22.20;;;14.98;;
44434;SDS011;30138;20.964;105.830;2022-09-09T02:04:54;18.67;;;13.27;;
44434;SDS011;30138;20.964;105.830;2022-09-09T02:10:08;20.67;;;14.00;;
44434;SDS011;30138;20.964;105.830;2022-09-09T02:15:30;20.17;;;14.52;;
44434;SDS011;30138;20.964;105.830;2022-09-09T02:20:43;21.50;;;14.65;;
44434;SDS011;30138;20.964;105.830;2022-09-09T02:25:59;25.65;;;15.55;;
44434;SDS011;30138;20.964;105.830;2022-09-09T02:31:08;22.83;;;15.43;;
44434;SDS011;30138;20.964;105.830;2022-09-09T02:36:16;22.20;;;14.80;;
44434;SDS011;30138;20.964;105.830;2022-09-09T02:41:25;25.33;;;15.65;;
44434;SDS011;30138;20.964;105.830;2022-09-09T02:46:40;22.25;;;14.63;;
44434;SDS011;30138;20.964;105.830;2022-09-09T02:52:00;24.52;;;15.35;;
44434;SDS011;30138;20.964;105.830;2022-09-09T02:57:12;21.35;;;14.65;;
44434;SDS011;30138;20.964;105.830;2022-09-09T03:02:28;21.60;;;14.02;;
44434;SDS011;30138;20.964;105.830;2022-09-09T03:07:39;21.50;;;15.15;;
44434;SDS011;30138;20.964;105.830;2022-09-09T03:12:49;24.35;;;15.45;;
44434;SDS011;30138;20.964;105.830;2022-09-09T03:17:59;23.30;;;15.57;;
44434;SDS011;30138;20.964;105.830;2022-09-09T03:23:06;22.63;;;14.93;;
44434;SDS011;30138;20.964;105.830;2022-09-09T03:28:12;25.80;;;15.00;;
44434;SDS011;30138;20.964;105.830;2022-09-09T03:33:22;23.02;;;14.90;;
44434;SDS011;30138;20.964;105.830;2022-09-09T03:38:29;25.35;;;15.85;;
44434;SDS011;30138;20.964;105.830;2022-09-09T03:43:35;22.52;;;14.70;;
44434;SDS011;30138;20.964;105.830;2022-09-09T03:48:46;24.70;;;15.75;;
44434;SDS011;30138;20.964;105.830;2022-09-09T03:53:53;25.20;;;15.07;;
44434;SDS011;30138;20.964;105.830;2022-09-09T03:59:02;22.55;;;15.30;;
44434;SDS011;30138;20.964;105.830;2022-09-09T04:04:12;20.42;;;15.15;;
44434;SDS011;30138;20.964;105.830;2022-09-09T04:09:18;23.80;;;15.48;;
44434;SDS011;30138;20.964;105.830;2022-09-09T04:14:25;20.60;;;15.05;;
44434;SDS011;30138;20.964;105.830;2022-09-09T04:19:34;22.73;;;15.45;;
44434;SDS011;30138;20.964;105.830;2022-09-09T04:24:42;23.65;;;15.70;;
44434;SDS011;30138;20.964;105.830;2022-09-09T04:29:51;23.15;;;15.40;;
44434;SDS011;30138;20.964;105.830;2022-09-09T04:35:03;20.75;;;15.07;;
44434;SDS011;30138;20.964;105.830;2022-09-09T04:40:11;24.30;;;15.55;;
44434;SDS011;30138;20.964;105.830;2022-09-09T04:45:18;24.90;;;16.30;;
44434;SDS011;30138;20.964;105.830;2022-09-09T04:50:26;27.88;;;17.15;;
44434;SDS011;30138;20.964;105.830;2022-09-09T04:55:35;26.33;;;17.80;;
44434;SDS011;30138;20.964;105.830;2022-09-09T05:00:42;28.38;;;18.58;;
44434;SDS011;30138;20.964;105.830;2022-09-09T05:05:52;30.23;;;18.80;;
44434;SDS011;30138;20.964;105.830;2022-09-09T05:11:00;28.95;;;19.95;;
44434;SDS011;30138;20.964;105.830;2022-09-09T05:16:07;32.53;;;21.70;;
44434;SDS011;30138;20.964;105.830;2022-09-09T05:21:16;36.05;;;23.23;;
44434;SDS011;30138;20.964;105.830;2022-09-09T05:26:24;36.33;;;23.47;;
44434;SDS011;30138;20.964;105.830;2022-09-09T05:31:32;36.47;;;24.30;;
44434;SDS011;30138;20.964;105.830;2022-09-09T05:36:48;39.17;;;26.95;;
44434;SDS011;30138;20.964;105.830;2022-09-09T05:41:57;40.00;;;27.10;;
44434;SDS011;30138;20.964;105.830;2022-09-09T05:47:05;44.95;;;28.30;;
44434;SDS011;30138;20.964;105.830;2022-09-09T05:52:13;41.88;;;29.23;;
44434;SDS011;30138;20.964;105.830;2022-09-09T05:57:20;42.88;;;29.52;;
44434;SDS011;30138;20.964;105.830;2022-09-09T06:02:28;42.33;;;29.45;;
44434;SDS011;30138;20.964;105.830;2022-09-09T06:07:36;44.13;;;29.05;;
44434;SDS011;30138;20.964;105.830;2022-09-09T06:12:45;38.47;;;28.07;;
44434;SDS011;30138;20.964;105.830;2022-09-09T06:17:54;42.38;;;29.50;;
44434;SDS011;30138;20.964;105.830;2022-09-09T06:23:05;41.60;;;29.25;;
44434;SDS011;30138;20.964;105.830;2022-09-09T06:28:11;39.47;;;28.63;;
44434;SDS011;30138;20.964;105.830;2022-09-09T06:33:19;42.05;;;29.60;;
44434;SDS011;30138;20.964;105.830;2022-09-09T06:38:27;40.30;;;29.10;;
44434;SDS011;30138;20.964;105.830;2022-09-09T06:43:35;40.67;;;28.33;;
44434;SDS011;30138;20.964;105.830;2022-09-09T06:48:42;43.03;;;29.27;;
44434;SDS011;30138;20.964;105.830;2022-09-09T06:53:53;39.47;;;29.42;;
44434;SDS011;30138;20.964;105.830;2022-09-09T06:59:03;37.10;;;27.80;;
44434;SDS011;30138;20.964;105.830;2022-09-09T07:04:16;38.72;;;29.58;;
44434;SDS011;30138;20.964;105.830;2022-09-09T07:09:25;39.17;;;28.42;;
44434;SDS011;30138;20.964;105.830;2022-09-09T07:14:36;38.08;;;29.13;;
44434;SDS011;30138;20.964;105.830;2022-09-09T07:19:44;38.45;;;27.60;;
44434;SDS011;30138;20.964;105.830;2022-09-09T07:24:54;35.80;;;27.90;;
44434;SDS011;30138;20.964;105.830;2022-09-09T07:30:00;39.40;;;28.77;;
44434;SDS011;30138;20.964;105.830;2022-09-09T07:35:08;39.75;;;28.15;;
44434;SDS011;30138;20.964;105.830;2022-09-09T07:40:18;36.67;;;27.00;;
44434;SDS011;30138;20.964;105.830;2022-09-09T07:45:25;36.55;;;27.98;;
44434;SDS011;30138;20.964;105.830;2022-09-09T07:50:36;39.15;;;29.05;;
44434;SDS011;30138;20.964;105.830;2022-09-09T07:55:46;39.42;;;28.25;;
44434;SDS011;30138;20.964;105.830;2022-09-09T08:00:53;38.42;;;27.90;;
44434;SDS011;30138;20.964;105.830;2022-09-09T08:06:01;37.40;;;28.50;;
44434;SDS011;30138;20.964;105.830;2022-09-09T08:11:11;42.88;;;29.42;;
44434;SDS011;30138;20.964;105.830;2022-09-09T08:16:19;40.58;;;29.98;;
44434;SDS011;30138;20.964;105.830;2022-09-09T08:21:29;37.75;;;28.42;;
44434;SDS011;30138;20.964;105.830;2022-09-09T08:26:40;36.63;;;27.52;;
44434;SDS011;30138;20.964;105.830;2022-09-09T08:32:02;38.08;;;27.52;;
44434;SDS011;30138;20.964;105.830;2022-09-09T08:37:10;37.58;;;28.02;;
44434;SDS011;30138;20.964;105.830;2022-09-09T08:42:26;36.28;;;28.17;;
44434;SDS011;30138;20.964;105.830;2022-09-09T08:47:45;37.15;;;28.48;;
44434;SDS011;30138;20.964;105.830;2022-09-09T08:53:02;37.35;;;26.92;;
44434;SDS011;30138;20.964;105.830;2022-09-09T08:58:16;33.92;;;26.65;;
44434;SDS011;30138;20.964;105.830;2022-09-09T09:03:30;35.08;;;27.17;;
44434;SDS011;30138;20.964;105.830;2022-09-09T09:08:49;34.25;;;27.00;;
44434;SDS011;30138;20.964;105.830;2022-09-09T09:14:07;33.42;;;26.40;;
44434;SDS011;30138;20.964;105.830;2022-09-09T09:19:18;33.70;;;26.38;;
44434;SDS011;30138;20.964;105.830;2022-09-09T09:24:31;33.30;;;26.60;;
44434;SDS011;30138;20.964;105.830;2022-09-09T09:29:49;36.05;;;27.17;;
44434;SDS011;30138;20.964;105.830;2022-09-09T09:35:00;33.95;;;26.85;;
44434;SDS011;30138;20.964;105.830;2022-09-09T09:40:11;33.88;;;26.85;;
44434;SDS011;30138;20.964;105.830;2022-09-09T09:45:25;34.72;;;25.58;;
44434;SDS011;30138;20.964;105.830;2022-09-09T09:50:40;31.60;;;25.30;;
44434;SDS011;30138;20.964;105.830;2022-09-09T09:55:55;31.63;;;24.55;;
44434;SDS011;30138;20.964;105.830;2022-09-09T10:01:18;32.40;;;25.55;;
44434;SDS011;30138;20.964;105.830;2022-09-09T10:06:32;32.22;;;24.73;;
44434;SDS011;30138;20.964;105.830;2022-09-09T10:11:43;33.10;;;24.75;;
44434;SDS011;30138;20.964;105.830;2022-09-09T10:17:03;30.48;;;24.90;;
44434;SDS011;30138;20.964;105.830;2022-09-09T10:22:22;33.22;;;24.30;;
44434;SDS011;30138;20.964;105.830;2022-09-09T10:27:34;32.13;;;25.58;;
44434;SDS011;30138;20.964;105.830;2022-09-09T10:32:56;34.08;;;27.35;;
44434;SDS011;30138;20.964;105.830;2022-09-09T10:38:17;39.17;;;28.55;;
44434;SDS011;30138;20.964;105.830;2022-09-09T10:43:39;38.10;;;29.67;;
44434;SDS011;30138;20.964;105.830;2022-09-09T10:49:19;37.35;;;30.13;;
44434;SDS011;30138;20.964;105.830;2022-09-09T10:54:42;40.33;;;29.85;;
44434;SDS011;30138;20.964;105.830;2022-09-09T11:00:00;41.50;;;31.73;;
44434;SDS011;30138;20.964;105.830;2022-09-09T11:10:26;39.20;;;30.33;;
44434;SDS011;30138;20.964;105.830;2022-09-09T11:15:42;42.08;;;32.88;;
44434;SDS011;30138;20.964;105.830;2022-09-09T11:20:58;39.22;;;31.20;;
44434;SDS011;30138;20.964;105.830;2022-09-09T11:26:14;43.35;;;33.50;;
44434;SDS011;30138;20.964;105.830;2022-09-09T11:31:41;43.03;;;34.25;;
44434;SDS011;30138;20.964;105.830;2022-09-09T11:42:22;44.40;;;33.78;;
44434;SDS011;30138;20.964;105.830;2022-09-09T11:47:30;46.90;;;35.97;;
44434;SDS011;30138;20.964;105.830;2022-09-09T11:52:40;45.38;;;35.35;;
44434;SDS011;30138;20.964;105.830;2022-09-09T11:57:56;45.63;;;36.25;;
44434;SDS011;30138;20.964;105.830;2022-09-09T12:03:03;51.10;;;39.50;;
44434;SDS011;30138;20.964;105.830;2022-09-09T12:08:16;43.92;;;36.38;;
44434;SDS011;30138;20.964;105.830;2022-09-09T12:13:31;51.45;;;38.95;;
44434;SDS011;30138;20.964;105.830;2022-09-09T12:18:38;52.35;;;40.58;;
44434;SDS011;30138;20.964;105.830;2022-09-09T12:23:49;55.38;;;43.03;;
44434;SDS011;30138;20.964;105.830;2022-09-09T12:34:39;62.67;;;47.17;;
44434;SDS011;30138;20.964;105.830;2022-09-09T12:39:53;61.80;;;47.67;;
44434;SDS011;30138;20.964;105.830;2022-09-09T12:45:14;73.45;;;52.00;;
44434;SDS011;30138;20.964;105.830;2022-09-09T12:50:24;64.97;;;53.13;;
44434;SDS011;30138;20.964;105.830;2022-09-09T12:55:36;71.38;;;55.25;;
44434;SDS011;30138;20.964;105.830;2022-09-09T13:00:52;69.13;;;53.30;;
44434;SDS011;30138;20.964;105.830;2022-09-09T13:06:10;72.00;;;54.90;;
44434;SDS011;30138;20.964;105.830;2022-09-09T13:11:24;66.10;;;51.92;;
44434;SDS011;30138;20.964;105.830;2022-09-09T13:16:37;70.47;;;54.40;;
44434;SDS011;30138;20.964;105.830;2022-09-09T13:21:45;69.07;;;54.75;;
44434;SDS011;30138;20.964;105.830;2022-09-09T13:26:56;70.93;;;54.05;;
44434;SDS011;30138;20.964;105.830;2022-09-09T13:32:06;70.18;;;54.35;;
44434;SDS011;30138;20.964;105.830;2022-09-09T13:37:22;69.50;;;55.47;;
44434;SDS011;30138;20.964;105.830;2022-09-09T13:42:36;67.95;;;51.92;;
44434;SDS011;30138;20.964;105.830;2022-09-09T13:47:46;63.17;;;49.25;;
44434;SDS011;30138;20.964;105.830;2022-09-09T13:52:54;70.72;;;51.42;;
44434;SDS011;30138;20.964;105.830;2022-09-09T13:58:03;67.10;;;50.45;;
44434;SDS011;30138;20.964;105.830;2022-09-09T14:03:10;65.03;;;50.83;;
44434;SDS011;30138;20.964;105.830;2022-09-09T14:08:21;59.47;;;47.80;;
44434;SDS011;30138;20.964;105.830;2022-09-09T14:13:41;62.90;;;47.38;;
44434;SDS011;30138;20.964;105.830;2022-09-09T14:18:48;62.63;;;48.20;;
44434;SDS011;30138;20.964;105.830;2022-09-09T14:23:58;65.35;;;48.03;;
44434;SDS011;30138;20.964;105.830;2022-09-09T14:29:09;62.78;;;49.13;;
44434;SDS011;30138;20.964;105.830;2022-09-09T14:34:15;58.63;;;47.25;;
44434;SDS011;30138;20.964;105.830;2022-09-09T14:39:22;61.88;;;47.92;;
44434;SDS011;30138;20.964;105.830;2022-09-09T14:44:31;59.53;;;46.47;;
44434;SDS011;30138;20.964;105.830;2022-09-09T14:49:39;58.35;;;47.65;;
44434;SDS011;30138;20.964;105.830;2022-09-09T14:54:50;61.53;;;46.95;;
44434;SDS011;30138;20.964;105.830;2022-09-09T14:59:59;60.80;;;46.60;;
44434;SDS011;30138;20.964;105.830;2022-09-09T15:05:06;60.13;;;46.67;;
44434;SDS011;30138;20.964;105.830;2022-09-09T15:10:13;61.08;;;44.75;;
44434;SDS011;30138;20.964;105.830;2022-09-09T15:15:24;57.20;;;45.35;;
44434;SDS011;30138;20.964;105.830;2022-09-09T15:20:30;57.40;;;44.92;;
44434;SDS011;30138;20.964;105.830;2022-09-09T15:25:49;53.28;;;42.97;;
44434;SDS011;30138;20.964;105.830;2022-09-09T15:31:01;56.13;;;45.53;;
44434;SDS011;30138;20.964;105.830;2022-09-09T15:36:13;59.28;;;45.00;;
44434;SDS011;30138;20.964;105.830;2022-09-09T15:41:22;62.28;;;44.72;;
44434;SDS011;30138;20.964;105.830;2022-09-09T15:46:32;55.55;;;43.22;;
44434;SDS011;30138;20.964;105.830;2022-09-09T15:51:43;54.03;;;43.65;;
44434;SDS011;30138;20.964;105.830;2022-09-09T15:56:53;56.78;;;43.90;;
44434;SDS011;30138;20.964;105.830;2022-09-09T16:02:04;55.15;;;42.55;;
44434;SDS011;30138;20.964;105.830;2022-09-09T16:07:12;51.38;;;41.45;;
44434;SDS011;30138;20.964;105.830;2022-09-09T16:12:23;50.63;;;41.13;;
44434;SDS011;30138;20.964;105.830;2022-09-09T16:17:34;51.22;;;40.22;;
44434;SDS011;30138;20.964;105.830;2022-09-09T16:22:42;53.92;;;41.85;;
44434;SDS011;30138;20.964;105.830;2022-09-09T16:27:48;52.30;;;40.40;;
44434;SDS011;30138;20.964;105.830;2022-09-09T16:32:57;49.80;;;40.58;;
44434;SDS011;30138;20.964;105.830;2022-09-09T16:38:04;53.10;;;40.60;;
44434;SDS011;30138;20.964;105.830;2022-09-09T16:43:11;54.60;;;40.35;;
44434;SDS011;30138;20.964;105.830;2022-09-09T16:48:20;57.05;;;40.83;;
44434;SDS011;30138;20.964;105.830;2022-09-09T16:53:27;49.85;;;39.47;;
44434;SDS011;30138;20.964;105.830;2022-09-09T16:58:34;51.47;;;38.70;;
44434;SDS011;30138;20.964;105.830;2022-09-09T17:03:44;49.13;;;38.33;;
44434;SDS011;30138;20.964;105.830;2022-09-09T17:08:53;43.85;;;37.40;;
44434;SDS011;30138;20.964;105.830;2022-09-09T17:14:02;51.25;;;39.40;;
44434;SDS011;30138;20.964;105.830;2022-09-09T17:19:12;48.33;;;37.03;;
44434;SDS011;30138;20.964;105.830;2022-09-09T17:24:19;45.75;;;36.45;;
44434;SDS011;30138;20.964;105.830;2022-09-09T17:29:27;47.63;;;37.50;;
44434;SDS011;30138;20.964;105.830;2022-09-09T17:34:39;48.30;;;37.80;;
44434;SDS011;30138;20.964;105.830;2022-09-09T17:39:45;49.90;;;36.80;;
44434;SDS011;30138;20.964;105.830;2022-09-09T17:44:56;47.40;;;36.47;;
44434;SDS011;30138;20.964;105.830;2022-09-09T17:50:06;46.67;;;36.00;;
44434;SDS011;30138;20.964;105.830;2022-09-09T17:55:14;48.88;;;37.05;;
44434;SDS011;30138;20.964;105.830;2022-09-09T18:00:23;48.42;;;36.80;;
44434;SDS011;30138;20.964;105.830;2022-09-09T18:05:33;43.78;;;35.67;;
44434;SDS011;30138;20.964;105.830;2022-09-09T18:10:39;46.83;;;35.70;;
44434;SDS011;30138;20.964;105.830;2022-09-09T18:15:45;43.22;;;34.85;;
44434;SDS011;30138;20.964;105.830;2022-09-09T18:21:00;44.20;;;33.75;;
44434;SDS011;30138;20.964;105.830;2022-09-09T18:26:08;44.72;;;37.00;;
44434;SDS011;30138;20.964;105.830;2022-09-09T18:31:17;44.78;;;34.20;;
44434;SDS011;30138;20.964;105.830;2022-09-09T18:36:30;47.15;;;35.60;;
44434;SDS011;30138;20.964;105.830;2022-09-09T18:41:40;48.72;;;35.58;;
44434;SDS011;30138;20.964;105.830;2022-09-09T18:46:48;44.58;;;36.28;;
44434;SDS011;30138;20.964;105.830;2022-09-09T18:51:56;46.22;;;35.70;;
44434;SDS011;30138;20.964;105.830;2022-09-09T18:57:03;42.08;;;32.42;;
44434;SDS011;30138;20.964;105.830;2022-09-09T19:02:11;43.63;;;32.63;;
44434;SDS011;30138;20.964;105.830;2022-09-09T19:07:19;46.03;;;35.58;;
44434;SDS011;30138;20.964;105.830;2022-09-09T19:12:26;45.63;;;36.03;;
44434;SDS011;30138;20.964;105.830;2022-09-09T19:17:33;46.72;;;35.65;;
44434;SDS011;30138;20.964;105.830;2022-09-09T19:22:40;46.88;;;35.95;;
44434;SDS011;30138;20.964;105.830;2022-09-09T19:27:47;43.08;;;33.67;;
44434;SDS011;30138;20.964;105.830;2022-09-09T19:32:54;46.25;;;34.05;;
44434;SDS011;30138;20.964;105.830;2022-09-09T19:38:03;45.10;;;34.33;;
44434;SDS011;30138;20.964;105.830;2022-09-09T19:43:10;46.92;;;35.35;;
44434;SDS011;30138;20.964;105.830;2022-09-09T19:48:17;46.55;;;34.65;;
44434;SDS011;30138;20.964;105.830;2022-09-09T19:53:25;45.63;;;35.28;;
44434;SDS011;30138;20.964;105.830;2022-09-09T19:58:32;46.50;;;35.00;;
44434;SDS011;30138;20.964;105.830;2022-09-09T20:03:40;47.67;;;35.92;;
44434;SDS011;30138;20.964;105.830;2022-09-09T20:08:50;51.85;;;36.53;;
44434;SDS011;30138;20.964;105.830;2022-09-09T20:13:58;51.47;;;36.80;;
44434;SDS011;30138;20.964;105.830;2022-09-09T20:19:05;47.67;;;36.53;;
44434;SDS011;30138;20.964;105.830;2022-09-09T20:24:16;48.10;;;36.70;;
44434;SDS011;30138;20.964;105.830;2022-09-09T20:29:25;49.85;;;35.42;;
44434;SDS011;30138;20.964;105.830;2022-09-09T20:34:32;51.33;;;36.72;;
44434;SDS011;30138;20.964;105.830;2022-09-09T20:39:41;49.70;;;36.00;;
44434;SDS011;30138;20.964;105.830;2022-09-09T20:44:47;48.97;;;35.55;;
44434;SDS011;30138;20.964;105.830;2022-09-09T20:49:53;49.67;;;37.25;;
44434;SDS011;30138;20.964;105.830;2022-09-09T20:55:03;48.45;;;35.10;;
44434;SDS011;30138;20.964;105.830;2022-09-09T21:00:11;51.50;;;37.70;;
44434;SDS011;30138;20.964;105.830;2022-09-09T21:05:18;44.42;;;34.65;;
44434;SDS011;30138;20.964;105.830;2022-09-09T21:10:29;45.45;;;34.60;;
44434;SDS011;30138;20.964;105.830;2022-09-09T21:15:35;44.75;;;34.83;;
44434;SDS011;30138;20.964;105.830;2022-09-09T21:20:42;44.25;;;33.80;;
44434;SDS011;30138;20.964;105.830;2022-09-09T21:25:51;52.38;;;35.90;;
44434;SDS011;30138;20.964;105.830;2022-09-09T21:30:58;46.30;;;35.20;;
44434;SDS011;30138;20.964;105.830;2022-09-09T21:36:05;54.38;;;35.40;;
44434;SDS011;30138;20.964;105.830;2022-09-09T21:41:16;48.58;;;34.38;;
44434;SDS011;30138;20.964;105.830;2022-09-09T21:46:22;45.70;;;34.88;;
44434;SDS011;30138;20.964;105.830;2022-09-09T21:51:29;45.72;;;33.15;;
44434;SDS011;30138;20.964;105.830;2022-09-09T21:56:37;45.13;;;34.22;;
44434;SDS011;30138;20.964;105.830;2022-09-09T22:01:45;43.75;;;33.78;;
44434;SDS011;30138;20.964;105.830;2022-09-09T22:06:51;44.95;;;34.65;;
44434;SDS011;30138;20.964;105.830;2022-09-09T22:12:00;46.75;;;35.25;;
44434;SDS011;30138;20.964;105.830;2022-09-09T22:17:07;47.45;;;34.13;;
44434;SDS011;30138;20.964;105.830;2022-09-09T22:22:14;43.63;;;34.03;;
44434;SDS011;30138;20.964;105.830;2022-09-09T22:27:22;42.97;;;33.22;;
44434;SDS011;30138;20.964;105.830;2022-09-09T22:32:29;45.08;;;32.72;;
44434;SDS011;30138;20.964;105.830;2022-09-09T22:37:35;46.65;;;34.22;;
44434;SDS011;30138;20.964;105.830;2022-09-09T22:42:45;44.33;;;34.42;;
44434;SDS011;30138;20.964;105.830;2022-09-09T22:47:51;46.05;;;33.58;;
44434;SDS011;30138;20.964;105.830;2022-09-09T22:52:57;49.42;;;33.53;;
44434;SDS011;30138;20.964;105.830;2022-09-09T22:58:07;43.90;;;33.22;;
44434;SDS011;30138;20.964;105.830;2022-09-09T23:03:14;42.42;;;32.17;;
44434;SDS011;30138;20.964;105.830;2022-09-09T23:08:23;43.67;;;33.28;;
44434;SDS011;30138;20.964;105.830;2022-09-09T23:13:35;43.30;;;32.97;;
44434;SDS011;30138;20.964;105.830;2022-09-09T23:18:43;47.07;;;34.70;;
44434;SDS011;30138;20.964;105.830;2022-09-09T23:23:50;55.58;;;36.75;;
44434;SDS011;30138;20.964;105.830;2022-09-09T23:28:59;52.40;;;35.15;;
44434;SDS011;30138;20.964;105.830;2022-09-09T23:34:05;50.05;;;35.63;;
44434;SDS011;30138;20.964;105.830;2022-09-09T23:39:13;48.13;;;36.30;;
44434;SDS011;30138;20.964;105.830;2022-09-09T23:44:22;46.67;;;35.83;;
44434;SDS011;30138;20.964;105.830;2022-09-09T23:49:28;51.00;;;35.75;;
44434;SDS011;30138;20.964;105.830;2022-09-09T23:54:35;48.63;;;33.35;;
44434;SDS011;30138;20.964;105.830;2022-09-09T23:59:43;42.60;;;31.35;;
